Dease Lake, Dease Lake Airport (CYDL)

NameDease Lake Airport
CityDease Lake
CountryCanada
ICAOCYDL
IATAYDL
Altitude803 m
CoordinatesGoogle Map
Live Air TrafficLiveATC.net
METARCYDL 220000Z AUTO 23004KT 200V260 9SM 09/05 A2968 RMK CLD MISG SLP062 DENSITY ALT 2700FT
2019-08-22 00:00:00 Wind: Southwest (230°) 2.06 m/s - Visibility: 14484.06 m - Temperature: 9 °C - Dew point: 5 °C - Humidity: 76.3% - Pressure: 1005.08 hPa
Statistics

The table below shows the detailed information of all flights to/from Dease Lake, Dease Lake Airport (CYDL).